McVeigh, Kentucky
Current Conditions -  °F | °C
As of 3:15 PM on Saturday 25 Oct 2014 (Local Time) from KPBX Reporting Station
Overcast Overcast  
Wind Chill: 64°   Ceiling: 3100
Heat Index: 64°   Visibility: 10mi
Dew Point: 48°   Wind: 0mph
Humidity: 57%   Direction: NA
Pressure: 29.99"   Gusts: NA
Location:  37.54°N, 82.26°W
Report Text: KPBX 251915Z AUTO 00000KT 10SM OVC031 18/09 A2999 RMK AO2 T01750089
Loading
Personal Weather Stations






























Interactive Weather Map
Tropical Storm Tracking
New forecast layout! Learn more

10-Day Weather Forecast

Advertisements
Track Severe Weather on mobile